Fairview Valley, Nevada Weather observations

Data are for observation ending at time listed.
 Day   Time    Ave.   Ave.  Ave.  Vector   Max.   Stn.    Total    Solar   Ave.   Ave.    #1       #2
  of    of     Air    Rel.  Wind   Wind    Wind   Baro.  Precip.   Rad.    Soil   Vis.   Cloud   Cloud
Year   Day     Temp.  Hum.  Speed  Dir.    Gust   Pres.                    Temp.          Ceil    Ceil
2015   (PST)    F      %     mph   deg.    mph     mb.     in.     W/m2     F     (km)   k ft.   k ft.
------------------------------------------------------------------------------------------------------
  25    0:00  999.0   999  999.0   999    999.0    999    999.00     999   999.0   999.0  999.0  999.0
  25    0:10  999.0   999  999.0   999    999.0    999    999.00     999   999.0   999.0  999.0  999.0
  25    0:20  999.0   999  999.0   999    999.0    999    999.00     999   999.0   999.0  999.0  999.0
  25    0:30  999.0   999  999.0   999    999.0    999    999.00     999   999.0   999.0  999.0  999.0
  25    0:40  999.0   999  999.0   999    999.0    999    999.00     999   999.0   999.0  999.0  999.0
  25    0:50  999.0   999  999.0   999    999.0    999    999.00     999   999.0   999.0  999.0  999.0
  25    1:00  999.0   999  999.0   999    999.0    999    999.00     999   999.0   999.0  999.0  999.0
  25    1:10  999.0   999  999.0   999    999.0    999    999.00     999   999.0   999.0  999.0  999.0
  25    1:20  999.0   999  999.0   999    999.0    999    999.00     999   999.0   999.0  999.0  999.0
  25    1:30  999.0   999  999.0   999    999.0    999    999.00     999   999.0   999.0  999.0  999.0
  25    1:40  999.0   999  999.0   999    999.0    999    999.00     999   999.0   999.0  999.0  999.0
  25    1:50  999.0   999  999.0   999    999.0    999    999.00     999   999.0   999.0  999.0  999.0
  25    2:00  999.0   999  999.0   999    999.0    999    999.00     999   999.0   999.0  999.0  999.0
  25    2:10  999.0   999  999.0   999    999.0    999    999.00     999   999.0   999.0  999.0  999.0
  25    2:20  999.0   999  999.0   999    999.0    999    999.00     999   999.0   999.0  999.0  999.0
  25    2:30  999.0   999  999.0   999    999.0    999    999.00     999   999.0   999.0  999.0  999.0
  25    2:40  999.0   999  999.0   999    999.0    999    999.00     999   999.0   999.0  999.0  999.0
  25    2:50  999.0   999  999.0   999    999.0    999    999.00     999   999.0   999.0  999.0  999.0
  25    3:00  999.0   999  999.0   999    999.0    999    999.00     999   999.0   999.0  999.0  999.0
  25    3:10  999.0   999  999.0   999    999.0    999    999.00     999   999.0   999.0  999.0  999.0
  25    3:20  999.0   999  999.0   999    999.0    999    999.00     999   999.0   999.0  999.0  999.0
  25    3:30  999.0   999  999.0   999    999.0    999    999.00     999   999.0   999.0  999.0  999.0
  25    3:40  999.0   999  999.0   999    999.0    999    999.00     999   999.0   999.0  999.0  999.0
  25    3:50  999.0   999  999.0   999    999.0    999    999.00     999   999.0   999.0  999.0  999.0
  25    4:00  999.0   999  999.0   999    999.0    999    999.00     999   999.0   999.0  999.0  999.0
  25    4:10  999.0   999  999.0   999    999.0    999    999.00     999   999.0   999.0  999.0  999.0
  25    4:20  999.0   999  999.0   999    999.0    999    999.00     999   999.0   999.0  999.0  999.0
  25    4:30  999.0   999  999.0   999    999.0    999    999.00     999   999.0   999.0  999.0  999.0
  25    4:40  999.0   999  999.0   999    999.0    999    999.00     999   999.0   999.0  999.0  999.0
  25    4:50  999.0   999  999.0   999    999.0    999    999.00     999   999.0   999.0  999.0  999.0
  25    5:00  999.0   999  999.0   999    999.0    999    999.00     999   999.0   999.0  999.0  999.0
  25    5:10  999.0   999  999.0   999    999.0    999    999.00     999   999.0   999.0  999.0  999.0
  25    5:20  999.0   999  999.0   999    999.0    999    999.00     999   999.0   999.0  999.0  999.0
  25    5:30  999.0   999  999.0   999    999.0    999    999.00     999   999.0   999.0  999.0  999.0
  25    5:40  999.0   999  999.0   999    999.0    999    999.00     999   999.0   999.0  999.0  999.0
  25    5:50  842.0     0    5.3   180     25.0    677     0.00       0    32.0    66.8    6.1  999.0
  25    6:00  999.0   999  999.0   999    999.0    999    999.00     999   999.0   999.0  999.0  999.0
  25    6:10  999.0   999  999.0   999    999.0    999    999.00     999   999.0   999.0  999.0  999.0
  25    6:20  999.0   999  999.0   999    999.0    999    999.00     999   999.0   999.0  999.0  999.0
  25    6:30  999.0   999  999.0   999    999.0    999    999.00     999   999.0   999.0  999.0  999.0
  25    6:40  999.0   999  999.0   999    999.0    999    999.00     999   999.0   999.0  999.0  999.0
  25    6:50   18.7    71    0.3   253      1.8    883     0.00       0    33.8   999.0    0.0  999.0
  25    7:00   19.5    71    0.5   253      2.2    883     0.00       1    33.7   999.0    0.0  999.0
  25    7:10   20.0    70    0.0     0      0.0    883     0.00       4    33.7   999.0    0.0  999.0
  25    7:20   21.1    71    0.0     0      0.0    884     0.00       9    33.6   999.0    0.0  999.0
  25    7:30   22.6    68    1.7   188      3.2    884     0.00      25    33.6   999.0    0.0  999.0
  25    7:40   23.9    68    3.4   180      3.9    883     0.00      46    33.6   999.0    0.0  999.0
  25    7:50   26.4    66    4.1   173      4.7    883     0.00      74    33.5   999.0    0.0  999.0
  25    8:00   28.8    62    1.1   177      3.4    883     0.00     106    33.5   999.0    0.0  999.0
  25    8:10   31.2    58    0.3   177      1.5    883     0.00     136    33.4   999.0    0.0  999.0
  25    8:20   31.5    56    0.0     0      0.0    883     0.00     161    33.4   999.0    0.0  999.0
  25    8:30   30.5    58    0.4   262      2.6    883     0.00     186    33.4   999.0    0.0  999.0
  25    8:40   30.7    58    2.6   271      3.4    883     0.00     211    33.4   999.0    0.0  999.0
  25    8:50   31.7    56    1.5   269      2.4    883     0.00     237    33.4   999.0    0.0  999.0
  25    9:00   32.8    55    1.1   258      2.5    883     0.00     262    33.4   999.0    0.0  999.0
  25    9:10   34.3    53    1.9   214      3.0    883     0.00     287    33.4   999.0    0.0  999.0
  25    9:20   36.1    50    2.8   186      4.8    883     0.00     311    33.5   999.0    0.0  999.0
  25    9:30   36.7    48    3.7   188      4.9    883     0.00     334    33.5   999.0    0.0  999.0
  25    9:40   37.5    46    3.0   194      4.2    883     0.00     356    33.5   999.0    0.0  999.0
  25    9:50   38.8    44    0.7   206      2.7    883     0.00     377    33.5   999.0    0.0  999.0
  25   10:00   40.1    43    0.8   220      2.8    883     0.00     397    33.5   999.0    0.0  999.0
  25   10:10   42.0    43    0.8   232      2.3    883     0.00     416    33.5   999.0    0.0  999.0
  25   10:20   44.5    40    1.4   150      4.0    883     0.00     434    33.5   999.0    0.0  999.0
  25   10:30   44.9    40    2.0   144      3.9    883     0.00     450    33.5   999.0    0.0  999.0
  25   10:40   45.7    40    2.5   132      3.9    883     0.00     465    33.5   999.0    0.0  999.0
  25   10:50   46.9    38    2.5   146      5.0    883     0.00     479    33.5   999.0    0.0  999.0
  25   11:00   48.4    36    2.5    82      5.6    883     0.00     492    33.5   999.0    0.0  999.0
  25   11:10   48.6    36    3.5    54      6.6    883     0.00     502    33.6   999.0    0.0  999.0
  25   11:20   49.3    35    2.6    31      5.6    882     0.00     512    33.6   999.0    0.0  999.0
  25   11:30   49.5    35    2.3    10      4.7    882     0.00     520    33.6   999.0    0.0  999.0
  25   11:40   50.0    35    3.6    23      6.3    882     0.00     526    33.6   999.0    0.0  999.0
  25   11:50   50.8    34    3.5    20      5.8    882     0.00     530    33.6   999.0    0.0  999.0
  25   12:00   51.6    34    2.1    41      5.3    882     0.00     534    33.6   999.0    0.0  999.0
  25   12:10   52.6    32    0.3    12      2.6    882     0.00     536    33.6   999.0    0.0  999.0
  25   12:20   53.8    31    1.7    24      5.2    881     0.00     535    33.6   999.0    0.0  999.0
  25   12:30   53.1    32    2.9    19      5.6    881     0.00     533    33.6   999.0    0.0  999.0
  25   12:40   53.6    32    5.5    24      9.3    881     0.00     528    33.7   999.0    0.0  999.0
  25   12:50   53.7    32    8.4    23     11.9    881     0.00     522    33.7   999.0    0.0  999.0
  25   13:00   53.9    32    7.9    29     12.4    881     0.00     505    33.8   999.0    0.0  999.0
  25   13:10   53.8    32    9.5    28     13.7    880     0.00     506    33.9   999.0    0.0  999.0
  25   13:20   54.3    32   10.3    31     13.2    880     0.00     496    34.1   999.0    0.0  999.0
  25   13:30   54.3    33   12.9    22     16.2    880     0.00     485    34.3   999.0    0.0  999.0
  25   13:40   53.6    33   12.3    19     15.9    880     0.00     471    34.4   999.0    0.0  999.0
  25   13:50   53.4    33   12.3    27     15.7    880     0.00     457    34.6   999.0    0.0  999.0
  25   14:00   53.4    33   12.0    16     16.9    880     0.00     441    34.8   999.0    0.0  999.0
  25   14:10   53.2    33   13.8    17     18.9    880     0.00     424    35.0   999.0    0.0  999.0
  25   14:20   53.3    33   14.5    17     19.2    880     0.00     405    35.3   999.0    0.0  999.0
  25   14:30   53.2    34   14.6    22     19.5    880     0.00     384    35.5   999.0    0.0  999.0
  25   14:40   53.2    35   16.9    23     20.8    880     0.00     364    35.7   999.0    0.0  999.0
  25   14:50   53.4    34   16.5    25     23.5    879     0.00     342    36.0   999.0    0.0  999.0
  25   15:00   53.0    34   16.2    28     22.4    879     0.00     319    36.2   999.0    0.0  999.0
  25   15:10   53.2    34   14.5    30     20.0    879     0.00     295    36.4   999.0    0.0  999.0
  25   15:20   53.6    34   12.3    30     16.6    879     0.00     271    36.7   999.0    0.0  999.0
  25   15:30   53.0    35   12.8    28     17.5    879     0.00     246    36.9   999.0    0.0  999.0
  25   15:40   53.0    36   12.0    35     16.1    879     0.00     220    37.1   999.0    0.0  999.0
  25   15:50   52.7    37   13.7    28     18.3    879     0.00     194    37.4   999.0    0.0  999.0
  25   16:00   52.7    37   13.0    21     15.8    879     0.00     169    37.6   999.0    0.0  999.0
  25   16:10   52.6    38   11.9    19     16.6    879     0.00     144    37.8   999.0    0.0  999.0
  25   16:20   52.4    38   10.8    22     15.5    879     0.00     114    38.0   999.0    0.0  999.0
  25   16:30   52.1    38    9.8    20     12.6    879     0.00      81    38.2   999.0    0.0  999.0
  25   16:40   51.7    39    7.5    26     11.4    879     0.00      52    38.4   999.0    0.0  999.0
  25   16:50   51.1    40    6.1    42      8.3    879     0.00      28    38.5   999.0    0.0  999.0
  25   17:00   50.4    41    2.6    61      6.1    879     0.00      12    38.7   999.0    0.0  999.0
  25   17:10   49.0    43    1.4   120      4.2    879     0.00       4    38.9   999.0    0.0  999.0
  25   17:20   48.5    44    2.1    82      5.2    879     0.00       2    39.0   999.0    0.0  999.0
  25   17:30   48.2    44    2.8    87      4.7    879     0.00       0    39.1   999.0    0.0  999.0
  25   17:40   47.0    46    2.8    87      3.9    879     0.00       0    39.2   999.0    0.0  999.0
  25   17:50   46.8    47    3.1    66      4.4    879     0.00       0    39.3   999.0    0.0  999.0
  25   18:00   46.7    47    3.4    61      5.3    879     0.00       0    39.4   999.0    0.0  999.0
  25   18:10   44.3    50    1.1    78      1.8    879     0.00       0    39.5   999.0    0.0  999.0
  25   18:20   43.8    50    0.7    78      1.2    879     0.00       0    39.5   999.0    0.0  999.0
  25   18:30   43.4    51    0.3    78      0.9    879     0.00       0    39.6   999.0    0.0  999.0
  25   18:40   43.6    51    3.1    78      4.3    879     0.00       0    39.6   999.0    0.0  999.0
  25   18:50   44.4    51    1.3    78      3.7    879     0.00       0    39.6   999.0    0.0  999.0
  25   19:00   45.8    49    0.4    78      1.4    879     0.00       0    39.6   999.0    0.0  999.0
  25   19:10   45.5    49    0.1    78      1.0    879     0.00       0    39.6   999.0    0.0  999.0
  25   19:20   41.3    52    0.6   341      3.9    880     0.00       0    39.6   999.0    0.0  999.0
  25   19:30   37.6    59    3.2   299      4.0    879     0.00       0    39.5   999.0    0.0  999.0
  25   19:40   37.8    59    3.8   295      4.5    879     0.00       0    39.5   999.0    0.0  999.0

Return to Fairview Valley graphs page.


Western Regional Climate Center,wrcc@dri.edu